createdAt,value
2022-11-16T00:01:49.436Z,99331.37
2022-11-16T00:04:17.086Z,99315.78
2022-11-16T00:06:45.803Z,99313.97
2022-11-16T00:09:27.183Z,99308.37
2022-11-16T00:11:57.466Z,99306.72
2022-11-16T00:14:26.797Z,99307.16
2022-11-16T00:16:54.343Z,99308.16
2022-11-16T00:19:22.559Z,99303.81
2022-11-16T00:21:50.836Z,99296.84
2022-11-16T00:24:19.569Z,99300.28
2022-11-16T00:26:47.486Z,99300.06
2022-11-16T00:29:16.682Z,99294.59
2022-11-16T00:31:45.490Z,99289.31
2022-11-16T00:34:13.193Z,99280.50
2022-11-16T00:36:40.796Z,99285.72
2022-11-16T00:39:11.314Z,99283.16
2022-11-16T00:41:39.091Z,99281.84
2022-11-16T00:44:06.514Z,99276.06
2022-11-16T00:46:33.876Z,99273.06
2022-11-16T00:49:02.236Z,99264.97
2022-11-16T00:51:29.900Z,99263.25
2022-11-16T00:53:57.977Z,99258.31
2022-11-16T00:56:25.744Z,99255.41
2022-11-16T00:58:53.101Z,99251.88
2022-11-16T01:01:20.510Z,99249.00
2022-11-16T01:03:50.736Z,99249.09
2022-11-16T01:06:20.348Z,99246.72
2022-11-16T01:08:47.970Z,99251.44
2022-11-16T01:11:34.905Z,99239.28
2022-11-16T01:14:07.435Z,99249.78
2022-11-16T01:16:35.949Z,99237.09
2022-11-16T01:19:05.099Z,99233.47
2022-11-16T01:21:33.300Z,99227.41
2022-11-16T01:24:00.604Z,99223.22
2022-11-16T01:26:28.280Z,99214.84
2022-11-16T01:28:55.975Z,99209.09
2022-11-16T01:31:24.088Z,99205.28
2022-11-16T01:33:51.782Z,99204.94
2022-11-16T01:36:19.569Z,99210.38
2022-11-16T01:38:47.350Z,99206.03
2022-11-16T01:41:17.761Z,99202.22
2022-11-16T01:43:56.634Z,99195.50
2022-11-16T01:46:25.697Z,99198.22
2022-11-16T01:49:03.584Z,99188.44
2022-11-16T01:51:32.511Z,99184.47
2022-11-16T01:54:02.028Z,99181.34
2022-11-16T01:56:31.609Z,99180.28
2022-11-16T01:58:59.510Z,99176.22
2022-11-16T02:01:27.292Z,99176.22
2022-11-16T02:03:55.575Z,99172.84
2022-11-16T02:06:26.211Z,99172.53
2022-11-16T02:09:38.205Z,99164.81
2022-11-16T02:12:30.906Z,99162.09
2022-11-16T02:15:01.346Z,99156.97
2022-11-16T02:17:54.960Z,99159.56
2022-11-16T02:20:40.247Z,99155.41
2022-11-16T02:23:16.849Z,99153.81
2022-11-16T02:26:07.665Z,99147.94
2022-11-16T02:28:44.228Z,99141.22
2022-11-16T02:31:15.675Z,99146.03
2022-11-16T02:33:44.482Z,99130.34
2022-11-16T02:36:15.043Z,99142.97
2022-11-16T02:38:49.071Z,99126.66
2022-11-16T02:41:20.056Z,99124.06
2022-11-16T02:43:52.962Z,99126.81
2022-11-16T02:46:26.338Z,99122.16
2022-11-16T02:48:56.475Z,99119.75
2022-11-16T02:51:25.165Z,99127.41
2022-11-16T02:54:00.753Z,99123.16
2022-11-16T02:56:29.968Z,99115.31
2022-11-16T02:58:58.892Z,99116.13
2022-11-16T03:01:38.350Z,99112.28
2022-11-16T03:04:16.391Z,99107.50
2022-11-16T03:06:48.185Z,99110.56
2022-11-16T03:09:22.795Z,99109.50
2022-11-16T03:12:02.481Z,99105.06
2022-11-16T03:15:09.749Z,99100.56
2022-11-16T03:17:41.353Z,99106.00
2022-11-16T03:20:16.190Z,99100.16
2022-11-16T03:22:52.713Z,99106.00
2022-11-16T03:25:21.361Z,99098.97
2022-11-16T03:27:52.712Z,99088.06
2022-11-16T03:30:24.005Z,99081.19
2022-11-16T03:33:00.786Z,99085.97
2022-11-16T03:35:31.963Z,99087.72
2022-11-16T03:38:00.858Z,99075.97
2022-11-16T03:40:30.846Z,99083.12
2022-11-16T03:43:00.097Z,99074.16
2022-11-16T03:45:28.407Z,99069.66
2022-11-16T03:47:55.772Z,99073.44
2022-11-16T03:50:23.313Z,99066.84
2022-11-16T03:52:51.403Z,99063.00
2022-11-16T03:55:19.241Z,99058.25
2022-11-16T03:57:46.888Z,99054.94
2022-11-16T04:00:16.036Z,99061.03
2022-11-16T04:02:43.777Z,99052.66
2022-11-16T04:05:29.526Z,99055.34
2022-11-16T04:08:15.839Z,99049.41
2022-11-16T04:11:02.780Z,99043.09
2022-11-16T04:13:51.083Z,99041.91
2022-11-16T04:16:37.054Z,99034.75
2022-11-16T04:19:24.316Z,99039.69
2022-11-16T04:22:13.834Z,99042.59
2022-11-16T04:24:44.328Z,99032.16
2022-11-16T04:27:32.399Z,99031.94
2022-11-16T04:30:01.488Z,99032.19
2022-11-16T04:32:49.645Z,99030.16
2022-11-16T04:35:29.518Z,99027.59
2022-11-16T04:37:58.060Z,99022.81
2022-11-16T04:40:30.295Z,99019.09
2022-11-16T04:42:59.654Z,99015.53
2022-11-16T04:45:47.301Z,99020.72
2022-11-16T04:48:17.549Z,99013.72
2022-11-16T04:50:46.004Z,99015.75
2022-11-16T04:53:13.788Z,99004.63
2022-11-16T04:55:43.103Z,99013.09
2022-11-16T04:58:10.738Z,99005.53
2022-11-16T05:00:38.409Z,99009.16
2022-11-16T05:03:05.834Z,99005.00
2022-11-16T05:05:33.603Z,99008.19
2022-11-16T05:08:01.113Z,99006.69
2022-11-16T05:10:29.210Z,98996.78
2022-11-16T05:12:57.521Z,99003.37
2022-11-16T05:15:25.212Z,99014.16
2022-11-16T05:17:55.694Z,99000.72
2022-11-16T05:20:42.706Z,99009.72
2022-11-16T05:23:30.100Z,99003.13
2022-11-16T05:25:58.105Z,98999.75
2022-11-16T05:28:25.454Z,98985.66
2022-11-16T05:30:52.963Z,98990.38
2022-11-16T05:33:22.674Z,98994.47
2022-11-16T05:35:51.562Z,98993.03
2022-11-16T05:38:19.519Z,98992.34
2022-11-16T05:40:47.426Z,98984.63
2022-11-16T05:43:15.358Z,98981.50
2022-11-16T05:45:43.350Z,98969.09
2022-11-16T05:48:11.573Z,98969.66
2022-11-16T05:50:42.778Z,98966.53
2022-11-16T05:53:10.861Z,98964.78
2022-11-16T05:55:38.514Z,98962.28
2022-11-16T05:58:05.936Z,98961.75
2022-11-16T06:00:34.564Z,98969.47
2022-11-16T06:03:02.365Z,98969.03
2022-11-16T06:05:29.892Z,98963.28
2022-11-16T06:07:57.667Z,98960.78
2022-11-16T06:10:25.531Z,98962.69
2022-11-16T06:12:53.184Z,98968.56
2022-11-16T06:15:20.593Z,98969.25
2022-11-16T06:17:48.401Z,98964.22
2022-11-16T06:20:16.024Z,98964.59
2022-11-16T06:22:44.178Z,98964.94
2022-11-16T06:25:12.237Z,98959.97
2022-11-16T06:27:42.529Z,98959.13
2022-11-16T06:30:10.313Z,98953.66
2022-11-16T06:32:38.621Z,98955.78
2022-11-16T06:35:06.705Z,98963.19
2022-11-16T06:37:34.304Z,98952.94
2022-11-16T06:40:03.411Z,98951.66
2022-11-16T06:42:31.915Z,98951.69
2022-11-16T06:44:59.598Z,98951.72
2022-11-16T06:47:27.799Z,98948.13
2022-11-16T06:49:55.686Z,98936.56
2022-11-16T06:52:23.377Z,98937.94
2022-11-16T06:54:51.212Z,98943.97
2022-11-16T06:57:18.562Z,98940.19
2022-11-16T06:59:46.005Z,98929.38
2022-11-16T07:02:14.572Z,98930.47
2022-11-16T07:04:42.125Z,98932.88
2022-11-16T07:07:09.582Z,98924.97
2022-11-16T07:09:37.462Z,98928.63
2022-11-16T07:12:06.303Z,98920.25
2022-11-16T07:14:34.555Z,98925.19
2022-11-16T07:17:09.100Z,98932.31
2022-11-16T07:19:36.901Z,98920.63
2022-11-16T07:22:04.619Z,98930.62
2022-11-16T07:24:33.082Z,98919.63
2022-11-16T07:27:00.638Z,98917.56
2022-11-16T07:29:28.608Z,98911.00
2022-11-16T07:32:00.787Z,98919.09
2022-11-16T07:34:28.677Z,98921.97
2022-11-16T07:37:00.391Z,98912.91
2022-11-16T07:39:27.777Z,98903.31
2022-11-16T07:41:55.712Z,98907.12
2022-11-16T07:44:23.294Z,98901.56
2022-11-16T07:46:59.420Z,98909.34
2022-11-16T07:49:26.826Z,98898.22
2022-11-16T07:51:54.803Z,98905.03
2022-11-16T07:54:24.871Z,98897.34
2022-11-16T07:56:52.633Z,98895.87
2022-11-16T07:59:20.166Z,98888.97
2022-11-16T08:01:48.953Z,98882.94
2022-11-16T08:04:17.797Z,98880.09
2022-11-16T08:06:46.862Z,98884.34
2022-11-16T08:09:14.286Z,98880.41
2022-11-16T08:11:42.047Z,98874.50
2022-11-16T08:14:11.692Z,98876.84
2022-11-16T08:16:39.323Z,98887.69
2022-11-16T08:19:07.446Z,98892.56
2022-11-16T08:21:34.815Z,98888.94
2022-11-16T08:24:02.796Z,98892.16
2022-11-16T08:26:30.733Z,98891.72
2022-11-16T08:28:58.584Z,98885.16
2022-11-16T08:31:28.121Z,98880.22
2022-11-16T08:33:59.990Z,98876.59
2022-11-16T08:36:27.659Z,98883.78
2022-11-16T08:38:55.866Z,98878.34
2022-11-16T08:41:24.359Z,98883.38
2022-11-16T08:43:53.450Z,98881.59
2022-11-16T08:46:21.784Z,98876.59
2022-11-16T08:48:55.840Z,98879.78
2022-11-16T08:51:24.785Z,98878.75
2022-11-16T08:53:57.462Z,98881.44
2022-11-16T08:56:30.164Z,98879.44
2022-11-16T08:58:59.348Z,98870.78
2022-11-16T09:01:29.354Z,98870.25
2022-11-16T09:03:57.110Z,98865.69
2022-11-16T09:06:26.371Z,98870.66
2022-11-16T09:08:53.956Z,98863.16
2022-11-16T09:11:22.688Z,98864.66
2022-11-16T09:13:52.145Z,98864.72
2022-11-16T09:16:21.049Z,98859.78
2022-11-16T09:18:50.090Z,98853.06
2022-11-16T09:21:25.846Z,98845.66
2022-11-16T09:23:54.160Z,98840.97
2022-11-16T09:26:23.221Z,98853.47
2022-11-16T09:28:59.289Z,98842.84
2022-11-16T09:31:28.324Z,98850.84
2022-11-16T09:33:58.435Z,98858.00
2022-11-16T09:36:27.571Z,98860.63
2022-11-16T09:39:19.431Z,98858.97
2022-11-16T09:42:04.002Z,98850.19
2022-11-16T09:45:01.281Z,98851.47
2022-11-16T09:47:40.367Z,98840.09
2022-11-16T09:50:19.214Z,98837.13
2022-11-16T09:52:48.524Z,98827.28
2022-11-16T09:55:38.692Z,98831.38
2022-11-16T09:58:13.184Z,98823.56
2022-11-16T10:00:44.369Z,98819.56
2022-11-16T10:03:13.606Z,98813.75
2022-11-16T10:05:47.993Z,98806.28
2022-11-16T10:08:23.332Z,98814.25
2022-11-16T10:11:09.574Z,98806.84
2022-11-16T10:14:04.187Z,98803.34
2022-11-16T10:16:40.236Z,98800.88
2022-11-16T10:19:23.114Z,98802.97
2022-11-16T10:22:16.604Z,98800.38
2022-11-16T10:25:01.123Z,98791.28
2022-11-16T10:27:46.390Z,98787.31
2022-11-16T10:30:19.631Z,98791.03
2022-11-16T10:33:17.265Z,98781.91
2022-11-16T10:35:49.056Z,98777.59
2022-11-16T10:38:19.277Z,98776.06
2022-11-16T10:40:51.130Z,98770.06
2022-11-16T10:43:24.152Z,98757.00
2022-11-16T10:46:18.571Z,98760.00
2022-11-16T10:49:08.009Z,98746.31
2022-11-16T10:51:36.058Z,98738.84
2022-11-16T10:54:12.071Z,98745.66
2022-11-16T10:56:42.596Z,98741.63
2022-11-16T10:59:12.419Z,98734.25
2022-11-16T11:01:40.892Z,98732.88
2022-11-16T11:04:22.670Z,98729.44
2022-11-16T11:07:29.549Z,98733.16
2022-11-16T11:09:56.937Z,98727.59
2022-11-16T11:12:40.717Z,98730.34
2022-11-16T11:15:10.694Z,98722.16
2022-11-16T11:17:43.454Z,98729.44
2022-11-16T11:20:16.992Z,98728.87
2022-11-16T11:22:58.908Z,98710.69
2022-11-16T11:25:29.193Z,98712.87
2022-11-16T11:28:20.168Z,98706.09
2022-11-16T11:31:01.004Z,98703.44
2022-11-16T11:33:38.008Z,98704.66
2022-11-16T11:36:18.859Z,98697.94
2022-11-16T11:39:01.688Z,98684.97
2022-11-16T11:41:37.949Z,98689.09
2022-11-16T11:44:06.762Z,98685.69
2022-11-16T11:47:06.714Z,98684.25
2022-11-16T11:49:33.696Z,98680.75
2022-11-16T11:52:26.492Z,98678.34
2022-11-16T11:54:54.881Z,98687.72
2022-11-16T11:57:23.858Z,98691.56
2022-11-16T11:59:53.196Z,98682.37
2022-11-16T12:02:43.669Z,98679.75
2022-11-16T12:05:42.380Z,98676.91
2022-11-16T12:08:28.224Z,98670.34
2022-11-16T12:11:01.553Z,98672.81
2022-11-16T12:13:53.801Z,98665.34
2022-11-16T12:16:45.637Z,98672.72
2022-11-16T12:19:34.554Z,98668.84
2022-11-16T12:22:22.964Z,98672.94
2022-11-16T12:25:15.031Z,98666.28
2022-11-16T12:28:38.539Z,98670.19
2022-11-16T12:31:14.779Z,98669.50
2022-11-16T12:33:52.948Z,98659.75
2022-11-16T12:36:32.292Z,98658.31
2022-11-16T12:39:20.672Z,98655.97
2022-11-16T12:41:54.084Z,98655.91
2022-11-16T12:44:40.154Z,98648.75
2022-11-16T12:47:50.155Z,98653.03
2022-11-16T12:50:36.644Z,98648.53
2022-11-16T12:53:37.860Z,98638.75
2022-11-16T12:56:12.352Z,98647.09
2022-11-16T12:59:04.627Z,98651.19
2022-11-16T13:01:38.554Z,98647.03
2022-11-16T13:04:14.890Z,98643.81
2022-11-16T13:06:47.713Z,98646.56
2022-11-16T13:09:27.982Z,98645.19
2022-11-16T13:11:58.192Z,98652.31
2022-11-16T13:14:32.092Z,98655.06
2022-11-16T13:17:02.198Z,98648.16
2022-11-16T13:19:29.751Z,98650.59
2022-11-16T13:22:06.919Z,98644.19
2022-11-16T13:24:52.074Z,98648.41
2022-11-16T13:27:41.700Z,98647.53
2022-11-16T13:30:21.878Z,98639.84
2022-11-16T13:33:22.694Z,98641.34
2022-11-16T13:35:51.676Z,98637.44
2022-11-16T13:38:54.221Z,98636.72
2022-11-16T13:41:29.643Z,98643.59
2022-11-16T13:43:57.324Z,98634.91
2022-11-16T13:47:01.026Z,98629.00
2022-11-16T13:49:32.263Z,98635.34
2022-11-16T13:52:21.444Z,98635.34
2022-11-16T13:54:53.448Z,98636.97
2022-11-16T13:57:32.765Z,98633.41
2022-11-16T14:00:05.274Z,98635.41
2022-11-16T14:02:40.814Z,98625.03
2022-11-16T14:05:41.591Z,98621.53
2022-11-16T14:08:24.338Z,98623.44
2022-11-16T14:10:51.715Z,98626.12
2022-11-16T14:13:37.993Z,98620.00
2022-11-16T14:16:17.532Z,98628.72
2022-11-16T14:18:55.782Z,98615.88
2022-11-16T14:21:26.822Z,98614.72
2022-11-16T14:24:19.381Z,98613.31
2022-11-16T14:26:49.285Z,98621.34
2022-11-16T14:29:45.000Z,98619.66
2022-11-16T14:32:41.314Z,98616.06
2022-11-16T14:35:25.508Z,98621.63
2022-11-16T14:38:05.115Z,98616.34
2022-11-16T14:40:54.860Z,98608.13
2022-11-16T14:43:30.445Z,98612.00
2022-11-16T14:46:02.310Z,98602.72
2022-11-16T14:48:29.856Z,98593.84
2022-11-16T14:51:09.510Z,98588.94
2022-11-16T14:53:40.786Z,98587.72
2022-11-16T14:56:14.126Z,98591.97
2022-11-16T14:59:15.599Z,98580.94
2022-11-16T15:01:43.081Z,98589.34
2022-11-16T15:04:11.307Z,98585.63
2022-11-16T15:06:42.716Z,98588.06
2022-11-16T15:09:17.078Z,98587.62
2022-11-16T15:12:06.161Z,98587.78
2022-11-16T15:14:38.430Z,98585.66
2022-11-16T15:17:07.139Z,98587.47
2022-11-16T15:19:34.723Z,98580.53
2022-11-16T15:22:04.231Z,98571.13
2022-11-16T15:24:33.855Z,98579.59
2022-11-16T15:27:23.073Z,98568.00
2022-11-16T15:29:50.659Z,98572.47
2022-11-16T15:32:18.254Z,98574.91
2022-11-16T15:34:52.693Z,98575.47
2022-11-16T15:37:27.977Z,98568.56
2022-11-16T15:39:56.971Z,98570.91
2022-11-16T15:42:25.988Z,98568.87
2022-11-16T15:44:54.020Z,98572.06
2022-11-16T15:47:21.931Z,98570.09
2022-11-16T15:49:52.912Z,98566.28
2022-11-16T15:52:43.633Z,98568.44
2022-11-16T15:55:21.528Z,98573.09
2022-11-16T15:58:06.166Z,98574.88
2022-11-16T16:00:36.315Z,98577.31
2022-11-16T16:03:25.675Z,98571.34
2022-11-16T16:05:53.593Z,98568.22
2022-11-16T16:08:33.365Z,98566.38
2022-11-16T16:11:20.302Z,98569.88
2022-11-16T16:13:59.219Z,98566.69
2022-11-16T16:16:29.995Z,98566.97
2022-11-16T16:19:06.686Z,98564.34
2022-11-16T16:21:43.018Z,98573.25
2022-11-16T16:24:36.788Z,98568.31
2022-11-16T16:27:16.136Z,98567.13
2022-11-16T16:29:45.240Z,98566.19
2022-11-16T16:32:16.071Z,98563.56
2022-11-16T16:34:43.733Z,98564.31
2022-11-16T16:37:12.041Z,98568.56
2022-11-16T16:39:39.927Z,98579.47
2022-11-16T16:42:12.922Z,98572.41
2022-11-16T16:44:41.123Z,98564.44
2022-11-16T16:47:09.099Z,98560.97
2022-11-16T16:49:36.756Z,98564.97
2022-11-16T16:52:05.125Z,98554.50
2022-11-16T16:54:33.014Z,98559.63
2022-11-16T16:57:02.579Z,98554.78
2022-11-16T16:59:30.263Z,98554.19
2022-11-16T17:01:58.822Z,98555.97
2022-11-16T17:04:26.219Z,98554.34
2022-11-16T17:06:54.201Z,98551.44
2022-11-16T17:09:22.003Z,98549.50
2022-11-16T17:11:49.495Z,98553.81
2022-11-16T17:14:18.398Z,98545.13
2022-11-16T17:16:46.095Z,98548.50
2022-11-16T17:19:14.004Z,98537.37
2022-11-16T17:21:41.602Z,98544.06
2022-11-16T17:24:09.931Z,98543.19
2022-11-16T17:26:37.483Z,98541.81
2022-11-16T17:29:05.244Z,98533.81
2022-11-16T17:31:33.124Z,98537.16
2022-11-16T17:34:02.038Z,98536.06
2022-11-16T17:36:29.978Z,98536.38
2022-11-16T17:38:58.785Z,98535.19
2022-11-16T17:41:26.562Z,98554.06
2022-11-16T17:43:54.909Z,98536.06
2022-11-16T17:46:24.484Z,98537.50
2022-11-16T17:48:52.513Z,98534.69
2022-11-16T17:51:22.499Z,98537.97
2022-11-16T17:53:50.566Z,98541.97
2022-11-16T17:56:23.414Z,98541.06
2022-11-16T17:58:52.342Z,98539.06
2022-11-16T18:01:20.605Z,98531.03
2022-11-16T18:03:48.411Z,98531.59
2022-11-16T18:06:21.935Z,98533.94
2022-11-16T18:08:49.831Z,98535.69
2022-11-16T18:11:22.922Z,98529.31
2022-11-16T18:13:58.889Z,98533.34
2022-11-16T18:16:28.826Z,98520.81
2022-11-16T18:19:05.858Z,98524.59
2022-11-16T18:21:39.743Z,98521.72
2022-11-16T18:24:08.855Z,98532.34
2022-11-16T18:26:36.932Z,98522.41
2022-11-16T18:29:05.016Z,98513.94
2022-11-16T18:31:36.016Z,98527.94
2022-11-16T18:34:04.010Z,98525.34
2022-11-16T18:36:31.849Z,98523.41
2022-11-16T18:39:00.210Z,98525.19
2022-11-16T18:41:29.460Z,98530.72
2022-11-16T18:43:59.429Z,98523.06
2022-11-16T18:46:31.474Z,98522.19
2022-11-16T18:48:59.951Z,98525.69
2022-11-16T18:51:29.126Z,98523.91
2022-11-16T18:53:57.877Z,98533.94
2022-11-16T18:56:27.353Z,98515.53
2022-11-16T18:58:55.591Z,98519.28
2022-11-16T19:01:27.043Z,98517.31
2022-11-16T19:03:57.083Z,98525.50
2022-11-16T19:06:25.266Z,98520.22
2022-11-16T19:08:56.541Z,98508.41
2022-11-16T19:11:25.014Z,98505.56
2022-11-16T19:13:56.934Z,98505.38
2022-11-16T19:16:25.928Z,98511.47
2022-11-16T19:18:53.963Z,98509.28
2022-11-16T19:21:24.218Z,98502.62
2022-11-16T19:23:53.614Z,98503.75
2022-11-16T19:26:23.908Z,98496.34
2022-11-16T19:28:54.082Z,98501.22
2022-11-16T19:31:29.238Z,98505.63
2022-11-16T19:34:02.439Z,98504.00
2022-11-16T19:36:32.735Z,98504.34
2022-11-16T19:39:01.316Z,98507.31
2022-11-16T19:41:29.514Z,98509.94
2022-11-16T19:44:01.810Z,98510.59
2022-11-16T19:46:33.983Z,98507.37
2022-11-16T19:49:01.790Z,98509.09
2022-11-16T19:51:31.545Z,98514.44
2022-11-16T19:54:02.840Z,98497.88
2022-11-16T19:56:31.040Z,98496.75
2022-11-16T19:58:58.936Z,98500.09
2022-11-16T20:01:29.590Z,98503.94
2022-11-16T20:04:02.663Z,98486.59
2022-11-16T20:06:32.605Z,98496.62
2022-11-16T20:09:08.978Z,98499.47
2022-11-16T20:11:38.819Z,98501.47
2022-11-16T20:14:09.389Z,98511.25
2022-11-16T20:16:43.659Z,98513.59
2022-11-16T20:19:11.956Z,98511.94
2022-11-16T20:21:41.380Z,98514.81
2022-11-16T20:24:14.852Z,98514.47
2022-11-16T20:26:49.541Z,98508.59
2022-11-16T20:29:18.980Z,98506.72
2022-11-16T20:31:47.563Z,98511.56
2022-11-16T20:34:16.812Z,98516.72
2022-11-16T20:36:46.495Z,98528.50
2022-11-16T20:39:15.858Z,98519.97
2022-11-16T20:41:44.404Z,98510.97
2022-11-16T20:44:23.567Z,98504.41
2022-11-16T20:46:54.550Z,98504.59
2022-11-16T20:49:22.262Z,98509.38
2022-11-16T20:51:51.426Z,98503.75
2022-11-16T20:54:19.877Z,98507.22
2022-11-16T20:56:49.703Z,98498.28
2022-11-16T20:59:17.429Z,98505.34
2022-11-16T21:01:48.191Z,98500.03
2022-11-16T21:04:16.334Z,98498.84
2022-11-16T21:06:43.798Z,98493.59
2022-11-16T21:09:12.209Z,98493.69
2022-11-16T21:11:58.594Z,98504.97
2022-11-16T21:14:26.646Z,98495.16
2022-11-16T21:16:54.129Z,98492.16
2022-11-16T21:19:21.492Z,98479.41
2022-11-16T21:21:49.315Z,98485.34
2022-11-16T21:24:17.656Z,98476.44
2022-11-16T21:26:45.112Z,98477.94
2022-11-16T21:29:12.710Z,98478.41
2022-11-16T21:31:40.103Z,98468.81
2022-11-16T21:34:07.560Z,98465.19
2022-11-16T21:36:36.203Z,98467.91
2022-11-16T21:39:03.645Z,98462.22
2022-11-16T21:41:31.754Z,98461.41
2022-11-16T21:43:59.388Z,98460.56
2022-11-16T21:46:27.145Z,98462.09
2022-11-16T21:48:56.682Z,98451.56
2022-11-16T21:51:26.254Z,98455.31
2022-11-16T21:53:55.582Z,98444.13
2022-11-16T21:56:24.636Z,98445.81
2022-11-16T21:58:53.091Z,98444.16
2022-11-16T22:01:21.303Z,98446.84
2022-11-16T22:04:09.440Z,98458.59
2022-11-16T22:06:55.729Z,98453.16
2022-11-16T22:09:23.599Z,98448.59
2022-11-16T22:11:50.946Z,98433.25
2022-11-16T22:14:18.271Z,98436.16
2022-11-16T22:16:45.889Z,98436.56
2022-11-16T22:19:13.224Z,98442.16
2022-11-16T22:21:40.529Z,98457.09
2022-11-16T22:24:08.342Z,98468.09
2022-11-16T22:26:37.946Z,98480.34
2022-11-16T22:29:05.264Z,98473.41
2022-11-16T22:31:33.027Z,98482.59
2022-11-16T22:34:00.354Z,98474.88
2022-11-16T22:36:27.879Z,98470.69
2022-11-16T22:38:57.129Z,98463.28
2022-11-16T22:41:24.490Z,98464.50
2022-11-16T22:43:51.850Z,98469.87
2022-11-16T22:46:19.438Z,98467.44
2022-11-16T22:48:47.901Z,98462.50
2022-11-16T22:51:20.201Z,98460.47
2022-11-16T22:53:48.042Z,98460.87
2022-11-16T22:56:15.368Z,98470.16
2022-11-16T22:58:42.740Z,98473.56
2022-11-16T23:01:10.582Z,98474.97
2022-11-16T23:03:38.764Z,98473.34
2022-11-16T23:06:06.925Z,98466.94
2022-11-16T23:08:35.650Z,98464.03
2022-11-16T23:11:32.692Z,98465.84
2022-11-16T23:14:19.344Z,98455.78
2022-11-16T23:16:47.225Z,98453.00
2022-11-16T23:19:35.313Z,98448.97
2022-11-16T23:22:21.889Z,98459.03
2022-11-16T23:25:07.806Z,98463.25
2022-11-16T23:27:59.867Z,98460.97
2022-11-16T23:30:27.501Z,98456.31
2022-11-16T23:32:55.240Z,98459.13
2022-11-16T23:35:23.040Z,98454.03
2022-11-16T23:38:04.517Z,98460.63
2022-11-16T23:40:37.288Z,98466.09
2022-11-16T23:43:24.536Z,98464.66
2022-11-16T23:45:51.843Z,98461.09
2022-11-16T23:48:19.449Z,98466.63
2022-11-16T23:50:46.842Z,98466.12
2022-11-16T23:53:14.205Z,98460.66
2022-11-16T23:55:42.105Z,98446.56
2022-11-16T23:58:15.182Z,98451.94
